Redwood City, CA

9:22 AM PST en Diciembre 18, 2014 (GMT -0800)
Jasper Ridge Biological Preserve | Change Station
CLOSE
Current Station
Estación meteorológica personal
Location: Woodside, CA
Altura: 420 ft
Estaciones meteorológicas cercanas

Alt 420 ft 37.41 °N, 122.24 °W | Updated 18 seconds ago

Nublado
Nublado
51.5 ° F
Sensación térmica 51.5 ° F
N
2.0
Viento Variable Viento desde SSE
Gusts 2.0 mph

Hoy
Alta -- | Baja -- ° F
--% Posibilidad de precipitaciones
Ayer
Alta -- | Baja -- ° F
Precip. -- pul
7:18 AM 4:53 PM
Creciente menguante, 13% visible
Presión 30.16 pul
Visibilidad 10.0 Millas
Nubes Nubes dispersas 2800 ft
Muy nublado 5000 ft
Punto de rocío 51 ° F
Humedad 98%
Precipitaciones 0.02 pul
Espesor de la nieve No disponible.
UV 0 de una escala de 12
Polen 3.50 de una escala de 12
Calidad del aire No disponible.
Flu Activity No disponible.
METAR KSQL 181656Z 13003KT 10SM SCT028 BKN050 12/09 A3016

More Conditions Fewer Conditions

Presión 30.16 pul
Visibilidad 10.0 Millas
Nubes Nubes dispersas 2800 ft
Muy nublado 5000 ft
Punto de rocío 51 ° F
Humedad 98%
Precipitaciones 0.02 pul
Espesor de la nieve No disponible.
UV 0 de una escala de 12
Polen 3.50 de una escala de 12
Calidad del aire No disponible.
Flu Activity No disponible.
METAR KSQL 181656Z 13003KT 10SM SCT028 BKN050 12/09 A3016

More Conditions Fewer Conditions

10-Day Weather Forecast

Almanac

Astronomía

Dec. 18, 2014 Salida Puesta
Hora real
Crepúsculo civil
Crepúsculo náutico
Crepúsculo astronómico
Luna
Horas de luz
Horas de luz
Tomorrow will be .
, % of the Moon is Illuminated

Extremos de hoy

Máximos del estado Bajos del estado

Community

WunderPhotos

Upload Photos

1,778,964 ¡fotos cargadas!

WunderBlogs® & News

Nearby

Calidad del aire

  Calidad del aire Índice AQ Contaminante
Not available.

Grosos de nieve

Estación Profundido Altura

Actividad de terremotos

Ciudad Distance Mag. Tiempo y dato
Magnitud mínima muestra es 2,5.

Temperaturas de aguas costeras

Lugar Temperatura

Estaciones meteorológicas cercanas